createdAt,value
2017-10-23T00:00:15.789Z,8.60
2017-10-23T00:02:42.107Z,8.70
2017-10-23T00:05:09.211Z,8.60
2017-10-23T00:07:50.867Z,8.60
2017-10-23T00:10:17.166Z,8.60
2017-10-23T00:12:43.482Z,8.60
2017-10-23T00:15:10.183Z,8.60
2017-10-23T00:17:36.881Z,8.60
2017-10-23T00:20:03.544Z,8.60
2017-10-23T00:22:30.430Z,8.60
2017-10-23T00:24:57.308Z,8.60
2017-10-23T00:27:23.607Z,8.60
2017-10-23T00:29:50.351Z,8.60
2017-10-23T00:32:16.652Z,8.50
2017-10-23T00:34:44.271Z,8.50
2017-10-23T00:37:10.587Z,8.50
2017-10-23T00:39:37.442Z,8.40
2017-10-23T00:42:03.756Z,8.40
2017-10-23T00:44:31.171Z,8.30
2017-10-23T00:46:57.519Z,8.30
2017-10-23T00:49:23.827Z,8.30
2017-10-23T00:51:50.174Z,8.20
2017-10-23T00:54:16.940Z,8.30
2017-10-23T00:56:43.282Z,8.30
2017-10-23T00:59:10.089Z,8.20
2017-10-23T01:01:36.421Z,8.30
2017-10-23T01:04:02.735Z,8.30
2017-10-23T01:06:29.078Z,8.20
2017-10-23T01:08:55.403Z,8.20
2017-10-23T01:11:22.897Z,8.10
2017-10-23T01:13:49.755Z,8.10
2017-10-23T01:16:16.074Z,8.10
2017-10-23T01:18:43.868Z,8.00
2017-10-23T01:21:10.207Z,8.00
2017-10-23T01:23:36.515Z,8.00
2017-10-23T01:26:02.879Z,8.00
2017-10-23T01:28:29.235Z,7.90
2017-10-23T01:30:55.704Z,7.90
2017-10-23T01:33:22.804Z,7.90
2017-10-23T01:35:49.639Z,7.80
2017-10-23T01:38:15.983Z,7.80
2017-10-23T01:40:42.662Z,7.80
2017-10-23T01:43:09.023Z,7.90
2017-10-23T01:45:36.130Z,8.00
2017-10-23T01:48:02.525Z,7.90
2017-10-23T01:50:28.843Z,8.00
2017-10-23T01:52:56.511Z,8.10
2017-10-23T01:55:23.951Z,8.00
2017-10-23T01:57:50.779Z,8.00
2017-10-23T02:00:17.107Z,8.10
2017-10-23T02:02:43.892Z,8.10
2017-10-23T02:05:11.496Z,8.00
2017-10-23T02:07:37.811Z,8.00
2017-10-23T02:10:05.459Z,8.00
2017-10-23T02:12:32.291Z,8.00
2017-10-23T02:14:58.603Z,8.00
2017-10-23T02:17:25.427Z,8.00
2017-10-23T02:19:52.083Z,8.10
2017-10-23T02:22:18.373Z,8.00
2017-10-23T02:24:45.423Z,8.00
2017-10-23T02:27:11.879Z,8.00
2017-10-23T02:29:38.918Z,8.00
2017-10-23T02:32:06.047Z,8.00
2017-10-23T02:34:32.709Z,8.00
2017-10-23T02:36:59.002Z,8.00
2017-10-23T02:39:25.304Z,7.90
2017-10-23T02:41:52.804Z,7.90
2017-10-23T02:44:19.111Z,7.90
2017-10-23T02:46:45.895Z,7.80
2017-10-23T02:49:12.177Z,7.80
2017-10-23T02:51:39.747Z,7.70
2017-10-23T02:54:07.109Z,7.70
2017-10-23T02:56:33.411Z,7.70
2017-10-23T02:59:00.663Z,7.70
2017-10-23T03:01:26.962Z,7.60
2017-10-23T03:03:53.271Z,7.60
2017-10-23T03:06:20.372Z,7.50
2017-10-23T03:08:47.444Z,7.50
2017-10-23T03:11:13.780Z,7.50
2017-10-23T03:13:40.111Z,7.50
2017-10-23T03:16:06.499Z,7.40
2017-10-23T03:18:33.309Z,7.50
2017-10-23T03:20:59.644Z,7.50
2017-10-23T03:23:25.998Z,7.50
2017-10-23T03:25:53.123Z,7.50
2017-10-23T03:28:19.455Z,7.50
2017-10-23T03:30:45.895Z,7.50
2017-10-23T03:33:12.571Z,7.60
2017-10-23T03:35:40.292Z,7.60
2017-10-23T03:38:07.068Z,7.50
2017-10-23T03:40:33.409Z,7.50
2017-10-23T03:42:59.735Z,7.50
2017-10-23T03:45:26.187Z,7.50
2017-10-23T03:47:52.527Z,7.50
2017-10-23T03:50:18.964Z,7.50
2017-10-23T03:52:45.874Z,7.50
2017-10-23T03:55:12.694Z,7.50
2017-10-23T03:57:39.015Z,7.50
2017-10-23T04:00:05.775Z,7.50
2017-10-23T04:02:32.133Z,7.50
2017-10-23T04:04:58.508Z,7.50
2017-10-23T04:07:25.274Z,7.50
2017-10-23T04:09:52.780Z,7.50
2017-10-23T04:12:19.153Z,7.50
2017-10-23T04:14:45.511Z,7.50
2017-10-23T04:17:13.319Z,7.50
2017-10-23T04:19:40.003Z,7.40
2017-10-23T04:22:06.358Z,7.40
2017-10-23T04:24:33.486Z,7.50
2017-10-23T04:27:00.145Z,7.40
2017-10-23T04:29:26.483Z,7.50
2017-10-23T04:31:52.847Z,7.50
2017-10-23T04:34:19.664Z,7.50
2017-10-23T04:36:45.991Z,7.50
2017-10-23T04:39:12.323Z,7.50
2017-10-23T04:41:38.794Z,7.50
2017-10-23T04:44:06.233Z,7.60
2017-10-23T04:46:33.107Z,7.60
2017-10-23T04:49:00.183Z,7.50
2017-10-23T04:51:27.003Z,7.40
2017-10-23T04:53:54.415Z,7.50
2017-10-23T04:56:20.747Z,7.40
2017-10-23T04:58:47.387Z,7.40
2017-10-23T05:01:13.731Z,7.40
2017-10-23T05:03:40.386Z,7.40
2017-10-23T05:06:07.351Z,7.40
2017-10-23T05:08:33.704Z,7.40
2017-10-23T05:11:00.815Z,7.30
2017-10-23T05:13:27.467Z,7.30
2017-10-23T05:15:54.307Z,7.30
2017-10-23T05:18:20.915Z,7.20
2017-10-23T05:20:47.285Z,7.20
2017-10-23T05:23:14.296Z,7.10
2017-10-23T05:25:41.414Z,7.30
2017-10-23T05:28:09.767Z,7.30
2017-10-23T05:30:36.108Z,7.30
2017-10-23T05:33:02.990Z,7.40
2017-10-23T05:35:29.799Z,7.30
2017-10-23T05:37:56.668Z,7.30
2017-10-23T05:40:23.559Z,7.30
2017-10-23T05:42:50.991Z,7.30
2017-10-23T05:45:18.214Z,7.20
2017-10-23T05:47:44.867Z,7.20
2017-10-23T05:50:11.651Z,7.20
2017-10-23T05:52:37.999Z,7.20
2017-10-23T05:55:05.546Z,7.20
2017-10-23T05:57:32.351Z,7.20
2017-10-23T05:59:59.169Z,7.30
2017-10-23T06:02:26.026Z,7.30
2017-10-23T06:04:52.374Z,7.30
2017-10-23T06:07:18.707Z,7.30
2017-10-23T06:09:45.132Z,7.30
2017-10-23T06:12:11.471Z,7.30
2017-10-23T06:14:37.984Z,7.20
2017-10-23T06:17:04.355Z,7.20
2017-10-23T06:19:31.360Z,7.20
2017-10-23T06:21:58.059Z,7.10
2017-10-23T06:24:24.450Z,7.20
2017-10-23T06:26:50.848Z,7.20
2017-10-23T06:29:17.277Z,7.20
2017-10-23T06:31:43.647Z,7.30
2017-10-23T06:34:10.540Z,7.30
2017-10-23T06:36:37.675Z,7.30
2017-10-23T06:39:04.788Z,7.30
2017-10-23T06:41:31.164Z,7.20
2017-10-23T06:43:58.279Z,7.30
2017-10-23T06:46:25.135Z,7.30
2017-10-23T06:48:51.505Z,7.40
2017-10-23T06:51:18.522Z,7.40
2017-10-23T06:53:44.867Z,7.50
2017-10-23T06:56:11.218Z,7.50
2017-10-23T06:58:38.315Z,7.50
2017-10-23T07:01:05.251Z,7.40
2017-10-23T07:03:31.595Z,7.40
2017-10-23T07:05:57.940Z,7.30
2017-10-23T07:08:24.343Z,7.30
2017-10-23T07:10:50.711Z,7.20
2017-10-23T07:13:17.155Z,7.20
2017-10-23T07:15:43.543Z,7.20
2017-10-23T07:18:10.246Z,7.20
2017-10-23T07:20:36.589Z,7.20
2017-10-23T07:23:02.947Z,7.30
2017-10-23T07:25:29.335Z,7.30
2017-10-23T07:27:55.682Z,7.20
2017-10-23T07:30:22.100Z,7.20
2017-10-23T07:32:49.299Z,7.20
2017-10-23T07:35:16.254Z,7.20
2017-10-23T07:37:42.543Z,7.20
2017-10-23T07:40:10.164Z,7.30
2017-10-23T07:42:36.499Z,7.30
2017-10-23T07:45:04.187Z,7.40
2017-10-23T07:47:30.964Z,7.40
2017-10-23T07:49:58.044Z,7.30
2017-10-23T07:52:24.366Z,7.30
2017-10-23T07:54:50.762Z,7.30
2017-10-23T07:57:17.507Z,7.40
2017-10-23T07:59:44.190Z,7.40
2017-10-23T08:02:10.495Z,7.30
2017-10-23T08:04:38.007Z,7.40
2017-10-23T08:07:04.323Z,7.40
2017-10-23T08:09:30.635Z,7.40
2017-10-23T08:11:57.721Z,7.40
2017-10-23T08:14:24.035Z,7.40
2017-10-23T08:16:51.624Z,7.50
2017-10-23T08:19:18.363Z,7.50
2017-10-23T08:21:44.680Z,7.50
2017-10-23T08:24:11.746Z,7.40
2017-10-23T08:26:38.189Z,7.40
2017-10-23T08:29:05.075Z,7.40
2017-10-23T08:31:31.853Z,7.50
2017-10-23T08:33:59.503Z,7.60
2017-10-23T08:36:25.807Z,7.60
2017-10-23T08:38:52.599Z,7.60
2017-10-23T08:41:18.899Z,7.70
2017-10-23T08:43:45.197Z,7.70
2017-10-23T08:46:11.551Z,7.70
2017-10-23T08:48:38.255Z,7.70
2017-10-23T08:51:04.602Z,7.70
2017-10-23T08:53:31.959Z,7.70
2017-10-23T08:55:59.375Z,7.80
2017-10-23T08:58:25.727Z,7.70
2017-10-23T09:00:52.627Z,7.80
2017-10-23T09:03:18.983Z,7.90
2017-10-23T09:05:45.707Z,7.90
2017-10-23T09:08:12.040Z,8.00
2017-10-23T09:10:38.418Z,7.80
2017-10-23T09:13:04.902Z,7.80
2017-10-23T09:15:32.332Z,7.80
2017-10-23T09:18:14.198Z,7.80
2017-10-23T09:20:40.500Z,7.80
2017-10-23T09:23:07.528Z,7.90
2017-10-23T09:25:34.223Z,7.90
2017-10-23T09:28:00.545Z,7.90
2017-10-23T09:30:26.851Z,8.00
2017-10-23T09:32:54.059Z,8.00
2017-10-23T09:35:20.755Z,8.00
2017-10-23T09:37:48.271Z,7.90
2017-10-23T09:40:14.600Z,7.90
2017-10-23T09:42:40.907Z,7.90
2017-10-23T09:45:07.979Z,8.00
2017-10-23T09:47:34.269Z,8.00
2017-10-23T09:50:00.662Z,8.00
2017-10-23T09:52:27.352Z,8.10
2017-10-23T09:54:53.652Z,8.10
2017-10-23T09:57:19.964Z,8.00
2017-10-23T09:59:46.916Z,8.00
2017-10-23T10:02:13.337Z,8.00
2017-10-23T10:04:40.952Z,8.00
2017-10-23T10:07:07.256Z,8.00
2017-10-23T10:09:33.923Z,8.00
2017-10-23T10:12:00.707Z,8.10
2017-10-23T10:14:27.019Z,8.10
2017-10-23T10:16:53.675Z,8.10
2017-10-23T10:19:20.300Z,8.10
2017-10-23T10:21:46.599Z,8.20
2017-10-23T10:24:12.919Z,8.10
2017-10-23T10:26:40.012Z,8.10
2017-10-23T10:29:06.315Z,8.10
2017-10-23T10:31:32.732Z,8.00
2017-10-23T10:34:00.424Z,8.00
2017-10-23T10:36:26.755Z,8.00
2017-10-23T10:38:53.555Z,8.00
2017-10-23T10:41:19.885Z,8.00
2017-10-23T10:43:46.652Z,8.10
2017-10-23T10:46:13.026Z,8.10
2017-10-23T10:48:40.353Z,8.10
2017-10-23T10:51:07.859Z,8.10
2017-10-23T10:53:34.196Z,8.10
2017-10-23T10:56:00.509Z,8.10
2017-10-23T10:58:26.851Z,8.10
2017-10-23T11:00:54.227Z,8.20
2017-10-23T11:03:21.949Z,8.20
2017-10-23T11:05:48.822Z,8.20
2017-10-23T11:08:15.853Z,8.20
2017-10-23T11:10:42.690Z,8.20
2017-10-23T11:13:09.011Z,8.30
2017-10-23T11:15:35.351Z,8.30
2017-10-23T11:18:02.047Z,8.30
2017-10-23T11:20:28.402Z,8.30
2017-10-23T11:22:54.723Z,8.40
2017-10-23T11:25:21.122Z,8.40
2017-10-23T11:27:47.443Z,8.50
2017-10-23T11:30:13.855Z,8.50
2017-10-23T11:32:40.220Z,8.50
2017-10-23T11:35:07.029Z,8.60
2017-10-23T11:37:33.723Z,8.70
2017-10-23T11:40:00.047Z,8.70
2017-10-23T11:42:26.370Z,8.70
2017-10-23T11:44:52.715Z,8.80
2017-10-23T11:47:19.645Z,8.70
2017-10-23T11:49:45.973Z,8.70
2017-10-23T11:52:12.283Z,8.70
2017-10-23T11:54:39.367Z,8.50
2017-10-23T11:57:06.119Z,8.50
2017-10-23T11:59:32.438Z,8.40
2017-10-23T12:01:59.245Z,8.50
2017-10-23T12:04:26.033Z,8.40
2017-10-23T12:06:52.894Z,8.30
2017-10-23T12:09:19.225Z,8.20
2017-10-23T12:11:45.540Z,8.10
2017-10-23T12:14:11.928Z,8.00
2017-10-23T12:16:38.290Z,7.90
2017-10-23T12:19:05.182Z,7.90
2017-10-23T12:21:31.523Z,7.80
2017-10-23T12:23:57.861Z,7.70
2017-10-23T12:26:24.347Z,7.70
2017-10-23T12:28:50.687Z,7.70
2017-10-23T12:31:17.121Z,7.80
2017-10-23T12:33:43.490Z,7.90
2017-10-23T12:36:10.259Z,7.90
2017-10-23T12:38:36.595Z,7.80
2017-10-23T12:41:02.947Z,7.70
2017-10-23T12:43:29.311Z,7.80
2017-10-23T12:45:56.048Z,7.90
2017-10-23T12:48:22.723Z,7.90
2017-10-23T12:50:49.858Z,8.00
2017-10-23T12:53:16.268Z,8.00
2017-10-23T12:55:42.927Z,8.00
2017-10-23T12:58:09.244Z,8.00
2017-10-23T13:00:35.935Z,8.00
2017-10-23T13:03:03.612Z,8.10
2017-10-23T13:05:30.991Z,8.20
2017-10-23T13:07:57.295Z,8.20
2017-10-23T13:10:24.351Z,8.20
2017-10-23T13:12:51.471Z,8.20
2017-10-23T13:15:17.796Z,8.20
2017-10-23T13:17:44.615Z,8.20
2017-10-23T13:20:10.917Z,8.30
2017-10-23T13:22:37.403Z,8.30
2017-10-23T13:25:03.879Z,8.40
2017-10-23T13:27:30.219Z,8.40
2017-10-23T13:29:56.651Z,8.40
2017-10-23T13:32:23.036Z,8.40
2017-10-23T13:34:50.002Z,8.40
2017-10-23T13:37:16.304Z,8.50
2017-10-23T13:39:43.344Z,8.50
2017-10-23T13:42:10.143Z,8.50
2017-10-23T13:44:36.875Z,8.50
2017-10-23T13:47:03.787Z,8.50
2017-10-23T13:49:30.086Z,8.50
2017-10-23T13:51:56.933Z,8.50
2017-10-23T13:54:23.556Z,8.50
2017-10-23T13:56:49.878Z,8.50
2017-10-23T13:59:16.219Z,8.50
2017-10-23T14:01:43.127Z,8.50
2017-10-23T14:04:10.124Z,8.50
2017-10-23T14:06:36.450Z,8.50
2017-10-23T14:09:02.839Z,8.40
2017-10-23T14:11:29.353Z,8.40
2017-10-23T14:13:55.699Z,8.50
2017-10-23T14:16:22.109Z,8.40
2017-10-23T14:18:49.056Z,8.40
2017-10-23T14:21:15.487Z,8.50
2017-10-23T14:23:41.822Z,8.50
2017-10-23T14:26:09.403Z,8.50
2017-10-23T14:28:35.774Z,8.50
2017-10-23T14:31:02.211Z,8.50
2017-10-23T14:33:28.704Z,8.60
2017-10-23T14:35:55.419Z,8.50
2017-10-23T14:38:22.311Z,8.50
2017-10-23T14:40:49.069Z,8.50
2017-10-23T14:43:15.625Z,8.50
2017-10-23T14:45:41.964Z,8.60
2017-10-23T14:48:08.894Z,8.60
2017-10-23T14:50:35.339Z,8.60
2017-10-23T14:53:02.240Z,8.60
2017-10-23T14:55:29.341Z,8.60
2017-10-23T14:57:55.862Z,8.60
2017-10-23T15:00:22.653Z,8.50
2017-10-23T15:02:49.468Z,8.50
2017-10-23T15:05:15.903Z,8.50
2017-10-23T15:07:42.246Z,8.50
2017-10-23T15:10:09.123Z,8.50
2017-10-23T15:12:35.484Z,8.60
2017-10-23T15:15:01.836Z,8.50
2017-10-23T15:17:29.363Z,8.60
2017-10-23T15:19:56.078Z,8.60
2017-10-23T15:22:22.451Z,8.60
2017-10-23T15:24:48.775Z,8.60
2017-10-23T15:27:15.739Z,8.60
2017-10-23T15:29:42.026Z,8.60
2017-10-23T15:32:08.323Z,8.60
2017-10-23T15:34:35.118Z,8.50
2017-10-23T15:37:02.026Z,8.60
2017-10-23T15:39:29.074Z,8.50
2017-10-23T15:41:56.134Z,8.60
2017-10-23T15:44:23.315Z,8.50
2017-10-23T15:46:50.265Z,8.50
2017-10-23T15:49:17.067Z,8.50
2017-10-23T15:51:44.135Z,8.50
2017-10-23T15:54:10.495Z,8.60
2017-10-23T15:56:36.836Z,8.60
2017-10-23T15:59:03.680Z,8.60
2017-10-23T16:01:30.456Z,8.60
2017-10-23T16:03:56.748Z,8.60
2017-10-23T16:06:23.798Z,8.80
2017-10-23T16:08:50.943Z,8.80
2017-10-23T16:11:17.268Z,8.80
2017-10-23T16:13:44.035Z,8.90
2017-10-23T16:16:11.107Z,8.90
2017-10-23T16:18:38.076Z,8.90
2017-10-23T16:21:04.460Z,9.00
2017-10-23T16:23:30.817Z,9.00
2017-10-23T16:25:57.919Z,9.00
2017-10-23T16:28:39.709Z,8.90
2017-10-23T16:31:06.059Z,9.00
2017-10-23T16:33:32.414Z,9.10
2017-10-23T16:35:59.148Z,9.00
2017-10-23T16:38:25.475Z,9.00
2017-10-23T16:40:51.796Z,9.00
2017-10-23T16:43:18.182Z,9.00
2017-10-23T16:45:45.259Z,9.00
2017-10-23T16:48:12.180Z,9.00
2017-10-23T16:50:38.622Z,8.90
2017-10-23T16:53:05.692Z,8.80
2017-10-23T16:55:33.268Z,8.80
2017-10-23T16:57:59.598Z,8.80
2017-10-23T17:00:26.454Z,8.80
2017-10-23T17:02:53.124Z,8.70
2017-10-23T17:05:19.871Z,8.70
2017-10-23T17:07:46.314Z,8.70
2017-10-23T17:10:12.630Z,8.60
2017-10-23T17:12:39.420Z,8.60
2017-10-23T17:15:05.735Z,8.60
2017-10-23T17:17:32.583Z,8.60
2017-10-23T17:19:59.399Z,8.60
2017-10-23T17:22:25.735Z,8.60
2017-10-23T17:24:52.361Z,8.60
2017-10-23T17:27:20.035Z,8.70
2017-10-23T17:29:46.364Z,8.70
2017-10-23T17:32:14.189Z,8.70
2017-10-23T17:34:41.083Z,8.70
2017-10-23T17:37:08.209Z,8.70
2017-10-23T17:39:35.319Z,8.70
2017-10-23T17:42:01.701Z,8.70
2017-10-23T17:44:27.996Z,8.70
2017-10-23T17:46:54.895Z,8.70
2017-10-23T17:49:21.663Z,8.70
2017-10-23T17:51:48.351Z,8.60
2017-10-23T17:54:15.084Z,8.60
2017-10-23T17:56:41.395Z,8.60
2017-10-23T17:59:07.723Z,8.50
2017-10-23T18:01:35.235Z,8.50
2017-10-23T18:04:02.199Z,8.50
2017-10-23T18:06:28.546Z,8.50
2017-10-23T18:08:54.907Z,8.50
2017-10-23T18:11:21.312Z,8.40
2017-10-23T18:13:47.626Z,8.40
2017-10-23T18:16:14.039Z,8.50
2017-10-23T18:18:40.951Z,8.50
2017-10-23T18:21:07.267Z,8.50
2017-10-23T18:23:33.605Z,8.50
2017-10-23T18:25:59.943Z,8.50
2017-10-23T18:28:26.328Z,8.50
2017-10-23T18:30:52.967Z,8.50
2017-10-23T18:33:19.274Z,8.50
2017-10-23T18:35:46.022Z,8.50
2017-10-23T18:38:12.350Z,8.50
2017-10-23T18:40:38.806Z,8.50
2017-10-23T18:43:06.043Z,8.50
2017-10-23T18:45:32.394Z,8.50
2017-10-23T18:47:59.771Z,8.40
2017-10-23T18:50:27.551Z,8.40
2017-10-23T18:52:54.234Z,8.40
2017-10-23T18:55:21.006Z,8.40
2017-10-23T18:57:47.332Z,8.50
2017-10-23T19:00:14.119Z,8.50
2017-10-23T19:02:41.170Z,8.50
2017-10-23T19:05:07.478Z,8.40
2017-10-23T19:07:33.843Z,8.40
2017-10-23T19:10:01.450Z,8.50
2017-10-23T19:12:27.964Z,8.50
2017-10-23T19:14:54.373Z,8.50
2017-10-23T19:17:21.925Z,8.50
2017-10-23T19:19:48.795Z,8.50
2017-10-23T19:22:16.363Z,8.50
2017-10-23T19:24:44.207Z,8.50
2017-10-23T19:27:11.047Z,8.50
2017-10-23T19:29:38.133Z,8.50
2017-10-23T19:32:04.649Z,8.60
2017-10-23T19:34:31.550Z,8.60
2017-10-23T19:36:58.126Z,8.50
2017-10-23T19:39:24.479Z,8.50
2017-10-23T19:41:50.860Z,8.50
2017-10-23T19:44:17.780Z,8.50
2017-10-23T19:46:45.571Z,8.50
2017-10-23T19:49:12.537Z,8.50
2017-10-23T19:51:39.267Z,8.60
2017-10-23T19:54:05.974Z,8.50
2017-10-23T19:56:32.323Z,8.50
2017-10-23T19:58:58.672Z,8.50
2017-10-23T20:01:26.294Z,8.50
2017-10-23T20:03:53.140Z,8.50
2017-10-23T20:06:19.453Z,8.50
2017-10-23T20:08:45.891Z,8.50
2017-10-23T20:11:12.238Z,8.50
2017-10-23T20:13:38.544Z,8.50
2017-10-23T20:16:04.937Z,8.50
2017-10-23T20:18:31.842Z,8.50
2017-10-23T20:20:58.195Z,8.50
2017-10-23T20:23:24.559Z,8.60
2017-10-23T20:25:51.420Z,8.60
2017-10-23T20:28:17.731Z,8.60
2017-10-23T20:30:44.051Z,8.60
2017-10-23T20:33:10.402Z,8.60
2017-10-23T20:35:37.291Z,8.60
2017-10-23T20:38:04.780Z,8.60
2017-10-23T20:40:31.746Z,8.60
2017-10-23T20:42:58.047Z,8.60
2017-10-23T20:45:24.799Z,8.50
2017-10-23T20:47:51.499Z,8.50
2017-10-23T20:50:17.809Z,8.50
2017-10-23T20:52:44.600Z,8.60
2017-10-23T20:55:10.913Z,8.50
2017-10-23T20:57:37.222Z,8.50
2017-10-23T21:00:03.731Z,8.60
2017-10-23T21:02:31.664Z,8.50
2017-10-23T21:04:57.987Z,8.50
2017-10-23T21:07:24.295Z,8.50
2017-10-23T21:09:50.731Z,8.50
2017-10-23T21:12:17.031Z,8.50
2017-10-23T21:14:43.430Z,8.40
2017-10-23T21:17:10.274Z,8.40
2017-10-23T21:19:36.594Z,8.40
2017-10-23T21:22:03.488Z,8.40
2017-10-23T21:24:30.340Z,8.50
2017-10-23T21:26:56.647Z,8.40
2017-10-23T21:29:23.514Z,8.50
2017-10-23T21:31:50.387Z,8.40
2017-10-23T21:34:17.843Z,8.40
2017-10-23T21:36:44.791Z,8.40
2017-10-23T21:39:11.108Z,8.40
2017-10-23T21:41:37.400Z,8.40
2017-10-23T21:44:03.859Z,8.30
2017-10-23T21:46:44.050Z,8.40
2017-10-23T21:49:10.403Z,8.40
2017-10-23T21:51:37.822Z,8.50
2017-10-23T21:54:04.574Z,8.40
2017-10-23T21:56:30.883Z,8.50
2017-10-23T21:58:57.183Z,8.50
2017-10-23T22:01:24.707Z,8.50
2017-10-23T22:03:51.363Z,8.50
2017-10-23T22:06:17.687Z,8.40
2017-10-23T22:08:44.039Z,8.50
2017-10-23T22:11:10.487Z,8.40
2017-10-23T22:13:36.804Z,8.50
2017-10-23T22:16:03.571Z,8.40
2017-10-23T22:18:30.437Z,8.40
2017-10-23T22:20:58.680Z,8.50
2017-10-23T22:23:24.987Z,8.40
2017-10-23T22:25:51.291Z,8.50
2017-10-23T22:28:18.370Z,8.40
2017-10-23T22:30:44.692Z,8.40
2017-10-23T22:33:11.079Z,8.40
2017-10-23T22:35:37.823Z,8.50
2017-10-23T22:38:04.652Z,8.50
2017-10-23T22:40:30.956Z,8.40
2017-10-23T22:42:57.277Z,8.30
2017-10-23T22:45:24.903Z,8.40
2017-10-23T22:47:51.603Z,8.40
2017-10-23T22:50:18.436Z,8.30
2017-10-23T22:52:45.778Z,8.30
2017-10-23T22:55:12.071Z,8.20
2017-10-23T22:57:38.378Z,8.30
2017-10-23T23:00:04.737Z,8.30
2017-10-23T23:02:31.523Z,8.30
2017-10-23T23:04:57.836Z,8.30
2017-10-23T23:07:24.131Z,8.30
2017-10-23T23:09:51.239Z,8.30
2017-10-23T23:12:17.900Z,8.30
2017-10-23T23:14:44.229Z,8.30
2017-10-23T23:17:10.957Z,8.30
2017-10-23T23:19:37.635Z,8.40
2017-10-23T23:22:04.691Z,8.30
2017-10-23T23:24:31.766Z,8.30
2017-10-23T23:26:58.101Z,8.30
2017-10-23T23:29:24.408Z,8.30
2017-10-23T23:31:50.807Z,8.40
2017-10-23T23:34:17.755Z,8.40
2017-10-23T23:36:44.615Z,8.30
2017-10-23T23:39:10.916Z,8.30
2017-10-23T23:41:37.733Z,8.20
2017-10-23T23:44:04.778Z,8.40
2017-10-23T23:46:31.115Z,8.30
2017-10-23T23:48:57.943Z,8.40
2017-10-23T23:51:24.647Z,8.40
2017-10-23T23:53:50.967Z,8.30
2017-10-23T23:56:18.007Z,8.40
2017-10-23T23:58:45.079Z,8.40
